Time;durP1;ratioP1;P1;durP2;ratioP2;P2;SDS_P1;SDS_P2;PMS_P1;PMS_P2;Temp;Humidity;BMP_temperature;BMP_pressure;BME280_temperature;BME280_humidity;BME280_pressure;Samples;Min_cycle;Max_cycle;Signal;HPM_P1;HPM_P2
2020/12/14 00:03:07;;;;;;;7.25;5.22;;;;;;;7.85;71.16;99899.66;8692263;33;20900;-70
2020/12/14 00:08:10;;;;;;;7.88;5.50;;;;;;;7.79;71.36;99901.72;8692952;33;20156;-71
2020/12/14 00:13:12;;;;;;;8.23;4.85;;;;;;;7.71;71.74;99904.03;8693480;33;20707;-71
2020/12/14 00:18:15;;;;;;;7.35;4.20;;;;;;;7.64;71.02;99902.69;8673274;33;20476;-71
2020/12/14 00:23:18;;;;;;;10.55;4.63;;;;;;;7.53;71.74;99887.41;8697147;33;20145;-73
2020/12/14 00:28:20;;;;;;;7.65;4.75;;;;;;;7.47;71.82;99879.81;8697150;33;20160;-73
2020/12/14 00:33:22;;;;;;;10.05;4.63;;;;;;;7.41;71.68;99877.53;8696965;33;20776;-73
2020/12/14 00:38:25;;;;;;;10.60;4.75;;;;;;;7.39;71.83;99890.06;8672927;33;21028;-73
2020/12/14 00:43:28;;;;;;;11.85;4.97;;;;;;;7.36;71.70;99884.94;8672395;33;20921;-73
2020/12/14 00:48:31;;;;;;;5.93;4.25;;;;;;;7.32;71.67;99880.75;8696882;33;20836;-72
2020/12/14 00:53:35;;;;;;;7.38;4.60;;;;;;;7.37;71.21;99864.53;8696374;33;20252;-73
2020/12/14 00:58:37;;;;;;;7.25;3.85;;;;;;;7.45;70.61;99857.78;8696112;33;20164;-73
2020/12/14 01:03:40;;;;;;;5.18;3.55;;;;;;;7.32;70.26;99851.50;8695656;33;20147;-73
2020/12/14 01:08:43;;;;;;;5.88;3.78;;;;;;;7.38;70.00;99853.81;8696244;33;20315;-72
2020/12/14 01:13:45;;;;;;;5.63;3.95;;;;;;;7.39;70.01;99860.81;8799657;28;20197;-74
2020/12/14 01:18:48;;;;;;;7.28;3.58;;;;;;;7.38;69.62;99860.91;8813656;33;20151;-75
2020/12/14 01:23:51;;;;;;;4.85;2.97;;;;;;;7.34;69.26;99874.38;8835852;33;20246;-73
2020/12/14 01:28:54;;;;;;;4.20;3.05;;;;;;;7.43;68.83;99874.78;8813535;33;20143;-75
2020/12/14 01:33:57;;;;;;;7.93;3.22;;;;;;;7.46;68.67;99871.91;8813598;33;20660;-75
2020/12/14 01:39:00;;;;;;;5.20;3.30;;;;;;;7.50;68.48;99871.66;8813566;33;20162;-75
2020/12/14 01:44:03;;;;;;;6.40;3.35;;;;;;;7.50;68.00;99861.00;8813471;33;20271;-75
2020/12/14 01:49:05;;;;;;;7.45;3.13;;;;;;;7.53;67.68;99849.34;8812535;33;20208;-75
2020/12/14 01:54:22;;;;;;;7.03;2.90;;;;;;;7.51;67.68;99838.81;8812636;33;20152;-75
2020/12/14 01:59:25;;;;;;;6.03;2.90;;;;;;;7.54;67.76;99824.44;8814924;33;20150;-74
2020/12/14 02:04:27;;;;;;;3.67;3.00;;;;;;;7.48;67.94;99827.50;8813433;33;20162;-75
2020/12/14 02:09:30;;;;;;;3.33;2.63;;;;;;;7.47;68.13;99833.78;8812134;33;21115;-74
2020/12/14 02:14:36;;;;;;;3.85;2.22;;;;;;;7.56;67.67;99830.53;8812759;33;20725;-75
2020/12/14 02:19:39;;;;;;;7.35;3.33;;;;;;;7.58;67.43;99828.63;8787448;33;20162;-75
2020/12/14 02:24:45;;;;;;;6.68;3.03;;;;;;;7.61;67.43;99823.13;8812480;33;20217;-75
2020/12/14 02:29:48;;;;;;;5.00;2.70;;;;;;;7.64;67.46;99825.59;8811896;33;20143;-74
2020/12/14 02:34:50;;;;;;;5.18;3.25;;;;;;;7.57;67.39;99819.81;8787213;33;20158;-74
2020/12/14 02:39:54;;;;;;;5.60;2.80;;;;;;;7.55;67.51;99821.72;8811519;33;20213;-75
2020/12/14 02:44:56;;;;;;;6.35;2.50;;;;;;;7.55;67.38;99813.72;8811632;33;20174;-75
2020/12/14 02:49:59;;;;;;;2.90;2.33;;;;;;;7.64;67.33;99811.44;8811027;33;20938;-74
2020/12/14 02:55:02;;;;;;;4.70;2.58;;;;;;;7.63;67.34;99817.72;8811587;33;20190;-74
2020/12/14 03:00:06;;;;;;;4.00;2.28;;;;;;;7.65;67.35;99794.53;8810821;33;20147;-74
2020/12/14 03:05:08;;;;;;;3.05;1.70;;;;;;;7.68;67.24;99795.19;8811570;33;20197;-74
2020/12/14 03:10:11;;;;;;;4.85;2.72;;;;;;;7.73;66.99;99789.56;8810931;33;20147;-74
2020/12/14 03:15:14;;;;;;;6.25;2.72;;;;;;;7.72;66.86;99772.78;8811280;33;20473;-75
2020/12/14 03:20:16;;;;;;;3.40;2.83;;;;;;;7.88;67.16;99777.09;8810640;33;20218;-75
2020/12/14 03:25:19;;;;;;;3.63;2.20;;;;;;;7.90;67.02;99780.50;8811032;33;20185;-75
2020/12/14 03:30:21;;;;;;;4.50;2.38;;;;;;;7.92;66.97;99783.91;8810601;33;20144;-74
2020/12/14 03:35:24;;;;;;;5.32;3.08;;;;;;;7.98;66.72;99781.72;8810928;33;20144;-75
2020/12/14 03:40:27;;;;;;;6.63;2.65;;;;;;;8.02;66.64;99771.72;8810154;33;20906;-75
2020/12/14 03:45:30;;;;;;;3.88;2.58;;;;;;;8.02;66.59;99753.94;8810605;33;20131;-74
2020/12/14 03:50:33;;;;;;;6.68;3.25;;;;;;;7.97;67.01;99756.06;8789394;33;20171;-73
2020/12/14 03:55:36;;;;;;;3.65;2.47;;;;;;;7.88;66.92;99754.00;8815708;33;20690;-75
2020/12/14 04:00:38;;;;;;;3.53;2.65;;;;;;;7.97;67.08;99752.53;8815083;33;20182;-74
2020/12/14 04:05:42;;;;;;;5.72;3.28;;;;;;;7.90;67.63;99749.44;8815883;33;20164;-74
2020/12/14 04:10:46;;;;;;;5.90;3.20;;;;;;;7.91;67.87;99751.16;8815353;33;20735;-74
2020/12/14 04:15:48;;;;;;;4.63;3.55;;;;;;;7.92;68.08;99768.81;8815164;33;20151;-75
2020/12/14 04:20:51;;;;;;;7.07;3.25;;;;;;;7.95;68.03;99765.97;8814800;33;20155;-75
2020/12/14 04:25:55;;;;;;;6.10;3.70;;;;;;;8.07;67.96;99761.63;8814940;33;20150;-75
2020/12/14 04:30:57;;;;;;;4.72;3.38;;;;;;;8.07;68.03;99764.28;8814607;33;20236;-75
2020/12/14 04:35:59;;;;;;;7.57;3.88;;;;;;;8.10;68.22;99766.75;8814951;33;20155;-75
2020/12/14 04:41:04;;;;;;;4.10;3.15;;;;;;;8.13;68.03;99755.06;8814574;33;20535;-75
2020/12/14 04:46:07;;;;;;;5.13;3.72;;;;;;;8.06;68.25;99751.06;8814697;33;20150;-75
2020/12/14 04:51:10;;;;;;;4.78;3.28;;;;;;;8.12;68.11;99740.91;8814179;33;20224;-74
2020/12/14 04:56:17;;;;;;;7.75;3.83;;;;;;;8.14;68.02;99736.31;8816344;33;20300;-75
2020/12/14 05:01:20;;;;;;;7.50;4.05;;;;;;;8.12;68.05;99745.38;8788294;33;20245;-75
2020/12/14 05:06:27;;;;;;;6.55;3.47;;;;;;;8.06;67.95;99729.78;8814144;33;20667;-74
2020/12/14 05:11:34;;;;;;;6.38;3.72;;;;;;;8.01;68.30;99723.00;8813781;33;20189;-76
2020/12/14 05:16:36;;;;;;;6.85;3.75;;;;;;;8.02;67.78;99737.97;8765078;33;20238;-74
2020/12/14 05:21:47;;;;;;;5.50;3.67;;;;;;;7.98;67.59;99738.28;8728815;33;20205;-75
2020/12/14 05:26:52;;;;;;;8.63;3.13;;;;;;;7.97;67.77;99737.44;8752660;33;20148;-75
2020/12/14 05:32:06;;;;;;;4.47;3.05;;;;;;;7.88;67.76;99729.22;8753561;33;20434;-73
2020/12/14 05:37:11;;;;;;;4.53;3.28;;;;;;;7.85;67.88;99724.13;8753830;33;20137;-73
2020/12/14 05:42:17;;;;;;;6.03;3.17;;;;;;;7.87;67.83;99715.09;8753478;33;20159;-74
2020/12/14 05:47:28;;;;;;;6.30;3.78;;;;;;;7.99;67.43;99721.38;8752840;33;20175;-75
2020/12/14 05:52:33;;;;;;;5.00;3.60;;;;;;;8.07;66.84;99723.53;8753069;33;20666;-74
2020/12/14 05:57:37;;;;;;;7.68;3.92;;;;;;;8.17;66.31;99717.50;8753255;33;20963;-74
2020/12/14 06:02:40;;;;;;;4.90;3.30;;;;;;;8.35;65.53;99722.53;8753374;33;20447;-73
2020/12/14 06:07:57;;;;;;;7.45;3.72;;;;;;;8.44;65.29;99728.09;8753617;33;20151;-74
2020/12/14 06:13:08;;;;;;;6.63;3.08;;;;;;;8.49;65.12;99727.78;8752685;33;20132;-74
2020/12/14 06:18:14;;;;;;;4.07;3.03;;;;;;;8.43;65.15;99730.88;8752966;33;20821;-73
2020/12/14 06:23:18;;;;;;;5.18;2.88;;;;;;;8.56;65.08;99739.72;8752521;33;20143;-74
2020/12/14 06:28:29;;;;;;;4.07;2.70;;;;;;;8.62;65.02;99733.13;8752850;33;20135;-74
2020/12/14 06:33:36;;;;;;;5.78;2.92;;;;;;;8.60;65.71;99737.69;8752375;33;20144;-74
2020/12/14 06:38:39;;;;;;;6.45;3.08;;;;;;;8.66;66.27;99739.94;8752701;33;20795;-75
2020/12/14 06:43:44;;;;;;;5.75;3.50;;;;;;;8.64;66.41;99740.06;8752083;33;20931;-74
2020/12/14 06:48:47;;;;;;;5.60;3.25;;;;;;;8.70;66.67;99737.94;8752639;33;20155;-74
2020/12/14 06:53:52;;;;;;;7.05;3.47;;;;;;;8.71;66.79;99735.13;8751895;33;20148;-74
2020/12/14 06:58:56;;;;;;;7.90;4.25;;;;;;;8.79;67.04;99751.44;8752011;33;20143;-74
2020/12/14 07:03:59;;;;;;;6.20;4.07;;;;;;;8.75;67.43;99741.97;8727818;33;20163;-76
2020/12/14 07:09:26;;;;;;;6.90;4.20;;;;;;;8.73;68.15;99727.06;8752315;33;20147;-72
2020/12/14 07:14:30;;;;;;;9.52;4.50;;;;;;;8.68;68.36;99728.22;8733256;28;20151;-71
2020/12/14 07:19:36;;;;;;;6.80;3.80;;;;;;;8.72;68.48;99751.97;8692795;33;20173;-70
2020/12/14 07:24:39;;;;;;;6.22;3.75;;;;;;;8.76;68.99;99746.31;8635365;33;20240;-70
2020/12/14 07:29:42;;;;;;;11.15;4.68;;;;;;;8.61;71.31;99734.94;8634533;33;20657;-70
2020/12/14 07:34:52;;;;;;;8.25;4.63;;;;;;;8.56;71.57;99742.38;8635255;34;20914;-70
2020/12/14 07:39:54;;;;;;;8.10;4.65;;;;;;;8.55;70.96;99727.34;8634609;33;20415;-70
2020/12/14 07:45:07;;;;;;;10.38;5.00;;;;;;;8.68;69.99;99730.03;8635073;34;21011;-70
2020/12/14 07:50:12;;;;;;;7.90;4.88;;;;;;;8.73;69.91;99740.38;8634728;34;20252;-69
2020/12/14 07:55:15;;;;;;;8.25;4.85;;;;;;;8.86;69.74;99744.72;8635047;34;20138;-70
2020/12/14 08:00:22;;;;;;;4.78;4.20;;;;;;;8.96;70.14;99736.09;8634433;34;20679;-70
2020/12/14 08:05:25;;;;;;;7.00;4.20;;;;;;;9.08;70.29;99748.56;8635505;34;20141;-70
2020/12/14 08:10:30;;;;;;;5.80;4.20;;;;;;;9.26;69.65;99733.91;8634501;33;20709;-69
2020/12/14 08:15:33;;;;;;;7.65;4.78;;;;;;;9.33;70.08;99727.19;8634123;34;20596;-69
2020/12/14 08:20:40;;;;;;;5.18;4.10;;;;;;;9.44;70.00;99734.41;8634615;33;20161;-70
2020/12/14 08:25:45;;;;;;;8.50;4.68;;;;;;;9.28;72.11;99731.13;8634617;34;20146;-70
2020/12/14 08:30:49;;;;;;;11.23;4.80;;;;;;;9.28;71.78;99729.31;8634127;33;20172;-69
2020/12/14 08:35:53;;;;;;;7.45;4.00;;;;;;;9.45;71.63;99721.91;8637339;34;20158;-69
2020/12/14 08:40:58;;;;;;;7.20;4.40;;;;;;;9.56;71.06;99743.31;8638878;33;20713;-69
2020/12/14 08:46:08;;;;;;;5.82;4.70;;;;;;;9.61;70.44;99751.00;8639331;34;20220;-69
2020/12/14 08:51:14;;;;;;;6.65;4.28;;;;;;;9.71;69.85;99750.22;8639003;33;21085;-70
2020/12/14 08:56:19;;;;;;;7.55;4.70;;;;;;;9.91;69.63;99750.56;8638905;34;20161;-70
2020/12/14 09:01:25;;;;;;;6.10;3.80;;;;;;;9.91;69.50;99748.72;8638156;33;20157;-70
2020/12/14 09:06:32;;;;;;;5.05;3.65;;;;;;;9.89;69.97;99750.66;8644152;34;20196;-71
2020/12/14 09:11:37;;;;;;;6.85;3.83;;;;;;;9.80;71.42;99762.88;8638533;33;20544;-71
2020/12/14 09:16:48;;;;;;;5.65;4.20;;;;;;;9.71;72.98;99768.03;8639151;34;20227;-71
2020/12/14 09:21:52;;;;;;;5.75;3.70;;;;;;;9.22;77.91;99779.56;8638534;33;20199;-69
2020/12/14 09:27:03;;;;;;;7.53;4.10;;;;;;;8.83;80.43;99784.03;8638383;34;20154;-70
2020/12/14 09:32:09;;;;;;;5.43;3.75;;;;;;;8.55;82.73;99772.63;8638367;33;20712;-70
2020/12/14 09:37:12;;;;;;;6.25;4.30;;;;;;;8.52;83.44;99788.78;8638657;34;20146;-72
2020/12/14 09:42:14;;;;;;;6.10;4.90;;;;;;;8.55;83.68;99772.63;8637312;33;20157;-72
2020/12/14 09:47:17;;;;;;;9.25;5.13;;;;;;;8.53;83.81;99779.00;8637690;34;20153;-72
2020/12/14 09:52:20;;;;;;;9.10;4.65;;;;;;;8.61;84.22;99782.88;8636834;33;20154;-72
2020/12/14 09:57:22;;;;;;;7.03;4.28;;;;;;;8.59;84.78;99783.94;8637855;34;20743;-72
2020/12/14 10:02:25;;;;;;;7.55;4.78;;;;;;;8.57;84.89;99783.16;8637482;33;20249;-72
2020/12/14 10:07:43;;;;;;;8.82;5.07;;;;;;;8.62;85.18;99787.22;8637959;34;20654;-72
2020/12/14 10:12:46;;;;;;;8.75;5.93;;;;;;;8.76;85.38;99777.44;8637090;33;20146;-72
2020/12/14 10:17:49;;;;;;;7.45;4.88;;;;;;;8.84;85.47;99785.75;8636904;34;20278;-72
2020/12/14 10:22:52;;;;;;;6.63;4.90;;;;;;;8.84;85.72;99789.25;8636676;33;20141;-72
2020/12/14 10:27:54;;;;;;;8.05;4.72;;;;;;;8.89;85.65;99783.63;8637372;34;20216;-72
2020/12/14 10:32:58;;;;;;;6.50;3.38;;;;;;;8.77;85.65;99795.13;8636339;33;20158;-72
2020/12/14 10:38:00;;;;;;;9.85;5.00;;;;;;;8.85;86.11;99796.28;8637954;34;20166;-71
2020/12/14 10:43:03;;;;;;;9.00;5.25;;;;;;;8.86;86.21;99806.00;8637491;33;20145;-72
2020/12/14 10:48:07;;;;;;;6.20;4.22;;;;;;;9.10;86.37;99797.25;8637335;34;20142;-72
2020/12/14 10:53:09;;;;;;;6.22;4.05;;;;;;;9.20;86.48;99792.13;8635951;33;20154;-73
2020/12/14 10:58:11;;;;;;;7.03;4.68;;;;;;;9.27;86.60;99798.72;8636419;34;20266;-72
2020/12/14 11:03:15;;;;;;;5.88;4.05;;;;;;;9.35;86.59;99799.91;8636735;34;21081;-72
2020/12/14 11:08:17;;;;;;;8.15;4.63;;;;;;;9.55;86.54;99790.47;8636751;34;20145;-72
2020/12/14 11:13:19;;;;;;;9.85;4.70;;;;;;;9.61;86.43;99796.34;8635953;33;20600;-74
2020/12/14 11:18:22;;;;;;;7.38;5.07;;;;;;;9.58;86.58;99790.25;8636350;34;20653;-74
2020/12/14 11:23:44;;;;;;;5.10;3.28;;;;;;;9.55;86.55;99784.28;8635891;33;20145;-74
2020/12/14 11:28:46;;;;;;;7.65;4.18;;;;;;;9.58;86.55;99794.72;8635944;34;20196;-74
2020/12/14 11:33:50;;;;;;;5.78;3.80;;;;;;;9.59;86.49;99772.44;8636814;33;20567;-74
2020/12/14 11:38:52;;;;;;;7.40;4.38;;;;;;;9.60;86.84;99782.16;8635700;34;20688;-73
2020/12/14 11:43:54;;;;;;;5.47;3.53;;;;;;;9.65;86.64;99779.13;8635141;33;20145;-73
2020/12/14 11:48:58;;;;;;;6.50;3.92;;;;;;;9.72;86.59;99777.72;8635296;34;20461;-72
2020/12/14 11:54:00;;;;;;;6.78;4.05;;;;;;;9.69;86.73;99773.47;8635148;33;20676;-73
2020/12/14 11:59:03;;;;;;;5.55;3.42;;;;;;;9.88;86.27;99786.31;8634996;34;20436;-73
2020/12/14 12:04:07;;;;;;;5.85;3.90;;;;;;;9.98;86.20;99781.13;8635294;33;20340;-73
2020/12/14 12:09:09;;;;;;;8.18;4.65;;;;;;;10.00;86.07;99796.06;8635842;34;20145;-75
2020/12/14 12:14:11;;;;;;;7.25;4.47;;;;;;;10.05;86.60;99785.06;8639762;33;20267;-74
2020/12/14 12:19:17;;;;;;;5.22;4.25;;;;;;;10.25;86.72;99773.72;8639362;34;20248;-74
2020/12/14 12:24:21;;;;;;;5.47;3.60;;;;;;;10.24;86.22;99784.53;8640124;33;20185;-74
2020/12/14 12:29:24;;;;;;;4.22;3.20;;;;;;;10.17;86.57;99777.94;8639550;34;20156;-72
2020/12/14 12:34:27;;;;;;;5.35;3.65;;;;;;;10.20;86.85;99777.72;8639958;33;20199;-72
2020/12/14 12:39:29;;;;;;;4.70;2.78;;;;;;;10.18;86.75;99755.66;8639079;34;20157;-71
2020/12/14 12:44:32;;;;;;;4.22;2.90;;;;;;;10.16;86.99;99753.09;8639540;33;20146;-73
2020/12/14 12:49:35;;;;;;;4.45;3.35;;;;;;;10.16;86.83;99763.75;8637790;34;20158;-73
2020/12/14 12:54:37;;;;;;;6.55;3.47;;;;;;;10.16;86.85;99750.41;8614749;34;20680;-72
2020/12/14 12:59:47;;;;;;;4.53;3.67;;;;;;;10.10;86.66;99760.72;8638252;33;20162;-71
2020/12/14 13:04:51;;;;;;;5.03;3.40;;;;;;;9.96;86.59;99748.41;8639030;34;20458;-71
2020/12/14 13:09:54;;;;;;;4.57;3.78;;;;;;;10.07;86.51;99755.59;8637973;33;20141;-71
2020/12/14 13:14:56;;;;;;;5.05;3.40;;;;;;;10.12;85.95;99745.41;8787151;28;20709;-73
2020/12/14 13:19:59;;;;;;;3.47;3.10;;;;;;;10.06;85.79;99746.72;8729833;33;20632;-75
2020/12/14 13:25:03;;;;;;;3.55;3.10;;;;;;;10.12;85.84;99748.97;8698697;33;20145;-74
2020/12/14 13:30:06;;;;;;;4.25;3.20;;;;;;;10.13;85.57;99747.97;8697559;33;21092;-74
2020/12/14 13:35:11;;;;;;;4.97;3.22;;;;;;;10.21;85.48;99737.56;8697736;33;20152;-73
2020/12/14 13:40:14;;;;;;;4.13;3.10;;;;;;;10.21;85.26;99747.41;8697170;33;20320;-73
2020/12/14 13:45:16;;;;;;;4.78;3.17;;;;;;;10.22;85.01;99741.94;8697260;33;20176;-72
2020/12/14 13:50:20;;;;;;;6.78;3.67;;;;;;;10.27;85.12;99749.63;8695588;33;20143;-72
2020/12/14 13:55:25;;;;;;;4.72;3.00;;;;;;;10.31;84.72;99753.78;8695458;33;20191;-71
2020/12/14 14:00:27;;;;;;;3.53;3.00;;;;;;;10.40;84.52;99761.09;8694824;33;20588;-73
2020/12/14 14:05:30;;;;;;;3.28;2.97;;;;;;;10.41;84.22;99765.47;8695246;33;20681;-74
2020/12/14 14:10:33;;;;;;;5.30;3.65;;;;;;;10.37;84.05;99749.81;8694687;33;20528;-72
2020/12/14 14:15:35;;;;;;;4.90;3.95;;;;;;;10.38;84.27;99756.84;8694957;33;20641;-72
2020/12/14 14:20:38;;;;;;;4.30;3.90;;;;;;;10.38;84.31;99744.34;8670004;33;20167;-72
2020/12/14 14:25:40;;;;;;;5.88;4.40;;;;;;;10.41;84.39;99751.25;8670736;33;20248;-72
2020/12/14 14:30:43;;;;;;;6.07;4.05;;;;;;;10.39;84.50;99750.53;8670098;33;20168;-73
2020/12/14 14:35:47;;;;;;;3.97;3.63;;;;;;;10.41;84.18;99759.28;8670760;33;20264;-73
2020/12/14 14:40:49;;;;;;;5.40;3.58;;;;;;;10.41;83.94;99752.09;8694234;33;20145;-74
2020/12/14 14:45:51;;;;;;;8.20;4.15;;;;;;;10.38;83.43;99746.16;8695189;33;20163;-74
2020/12/14 14:50:55;;;;;;;5.82;3.72;;;;;;;10.39;83.47;99753.19;8694188;33;20149;-74
2020/12/14 14:55:57;;;;;;;6.22;3.55;;;;;;;10.31;83.19;99766.28;8694000;33;20530;-74
2020/12/14 15:00:59;;;;;;;5.30;4.20;;;;;;;10.37;83.37;99765.84;8669567;33;20144;-74
2020/12/14 15:06:04;;;;;;;7.30;5.90;;;;;;;10.35;83.65;99760.59;8694239;33;20633;-74
2020/12/14 15:11:07;;;;;;;10.52;6.55;;;;;;;10.33;83.95;99767.84;8692621;33;20474;-74
2020/12/14 15:16:09;;;;;;;7.50;5.65;;;;;;;10.20;84.12;99769.72;8694023;33;20674;-75
2020/12/14 15:21:13;;;;;;;9.07;6.32;;;;;;;9.91;84.34;99778.09;8692555;33;20177;-74
2020/12/14 15:26:16;;;;;;;8.98;6.00;;;;;;;9.71;84.76;99776.03;8693784;33;20633;-74
2020/12/14 15:31:19;;;;;;;9.65;6.00;;;;;;;9.57;84.93;99774.34;8693630;33;20176;-73
2020/12/14 15:36:24;;;;;;;12.23;6.38;;;;;;;9.48;84.97;99780.34;8693483;33;20160;-75
2020/12/14 15:41:27;;;;;;;8.45;6.28;;;;;;;9.45;85.16;99784.09;8693074;33;21307;-73
2020/12/14 15:46:29;;;;;;;11.45;6.95;;;;;;;9.44;85.27;99787.72;8697174;33;20176;-74
2020/12/14 15:51:51;;;;;;;8.32;6.00;;;;;;;9.47;85.25;99792.84;8698226;33;20141;-75
2020/12/14 15:57:12;;;;;;;10.68;6.88;;;;;;;9.50;85.01;99789.09;8702101;33;20247;-74
2020/12/14 16:02:33;;;;;;;10.43;7.07;;;;;;;9.53;84.96;99787.06;8697920;33;20144;-74
2020/12/14 16:07:56;;;;;;;12.13;7.18;;;;;;;9.50;84.87;99779.28;8698310;33;20180;-74
2020/12/14 16:13:17;;;;;;;12.68;9.70;;;;;;;9.43;84.55;99779.81;8696573;33;20149;-73
2020/12/14 16:18:39;;;;;;;10.93;7.55;;;;;;;9.33;84.72;99783.16;8698278;33;20982;-74
2020/12/14 16:24:01;;;;;;;11.13;6.50;;;;;;;9.21;84.42;99777.84;8696926;33;20458;-73
2020/12/14 16:29:25;;;;;;;9.32;6.35;;;;;;;9.13;84.61;99778.38;8697938;33;20156;-73
2020/12/14 16:34:45;;;;;;;11.60;6.43;;;;;;;9.06;84.47;99780.63;8697752;33;20141;-75
2020/12/14 16:40:08;;;;;;;12.70;6.97;;;;;;;9.01;84.62;99788.09;8697300;33;20243;-73
2020/12/14 16:45:30;;;;;;;8.75;6.40;;;;;;;8.92;84.60;99783.41;8697432;33;20168;-74
2020/12/14 16:50:50;;;;;;;8.52;6.00;;;;;;;8.85;84.64;99784.78;8676509;33;20141;-73
2020/12/14 16:56:12;;;;;;;13.15;7.72;;;;;;;8.79;84.84;99795.88;8696831;33;20141;-74
2020/12/14 17:01:34;;;;;;;10.45;6.93;;;;;;;8.79;84.74;99796.72;8696523;33;20156;-73
2020/12/14 17:06:56;;;;;;;10.18;7.15;;;;;;;8.79;84.26;99794.06;8697458;33;20149;-72
2020/12/14 17:12:18;;;;;;;10.90;6.10;;;;;;;8.84;84.12;99788.41;8696392;33;20145;-74
2020/12/14 17:17:39;;;;;;;12.65;7.70;;;;;;;8.78;83.25;99795.03;8696767;33;20160;-73
2020/12/14 17:23:00;;;;;;;8.15;6.10;;;;;;;8.77;82.89;99800.44;8695635;33;20153;-74
2020/12/14 17:28:23;;;;;;;8.25;5.53;;;;;;;8.66;82.42;99802.03;8696438;33;20152;-75
2020/12/14 17:33:47;;;;;;;7.63;5.90;;;;;;;8.66;82.33;99811.81;8696036;33;20186;-73
2020/12/14 17:39:08;;;;;;;9.02;5.43;;;;;;;8.58;81.92;99808.81;8694963;33;20444;-73
2020/12/14 17:44:29;;;;;;;6.55;4.80;;;;;;;8.55;82.16;99809.88;8696066;33;20160;-73
2020/12/14 17:49:50;;;;;;;11.32;5.47;;;;;;;8.49;81.87;99818.28;8695608;33;20201;-74
2020/12/14 17:55:11;;;;;;;9.23;5.93;;;;;;;8.45;82.58;99822.97;8695653;33;20232;-73
2020/12/14 18:00:32;;;;;;;8.18;4.93;;;;;;;8.39;82.21;99823.41;8694804;33;20149;-72
2020/12/14 18:05:54;;;;;;;7.18;4.55;;;;;;;8.34;81.63;99821.97;8695485;33;20149;-75
2020/12/14 18:11:14;;;;;;;8.13;5.93;;;;;;;8.28;81.61;99822.34;8695108;33;20654;-74
2020/12/14 18:16:36;;;;;;;8.73;5.30;;;;;;;8.24;81.31;99829.69;8695441;33;20187;-74
2020/12/14 18:21:57;;;;;;;9.40;6.55;;;;;;;8.20;81.06;99817.53;8694720;33;20752;-73
2020/12/14 18:27:18;;;;;;;7.95;6.03;;;;;;;8.16;80.88;99827.53;8681864;33;20141;-75
2020/12/14 21:24:22;;;;;;;6.47;4.38;;;;;;;8.04;77.19;99862.09;8696996;33;21022;-75
2020/12/14 21:29:52;;;;;;;13.02;6.28;;;;;;;8.00;77.72;99848.09;8696698;33;20149;-74
2020/12/14 21:35:13;;;;;;;10.38;5.88;;;;;;;7.95;76.59;99868.81;8697405;33;20501;-74
2020/12/14 21:40:34;;;;;;;6.93;4.57;;;;;;;8.01;76.38;99868.47;8696540;33;20145;-75
2020/12/14 21:45:55;;;;;;;6.32;4.72;;;;;;;8.02;76.56;99864.84;8697062;33;20728;-75
2020/12/14 21:51:17;;;;;;;6.95;4.85;;;;;;;8.10;76.63;99867.00;8696521;33;20523;-75
2020/12/14 21:56:39;;;;;;;7.18;4.40;;;;;;;8.08;76.40;99871.56;8696538;33;20144;-75
2020/12/14 22:02:01;;;;;;;7.80;4.72;;;;;;;8.07;75.42;99881.34;8696038;33;20273;-75
2020/12/14 22:07:22;;;;;;;5.57;4.30;;;;;;;8.05;74.94;99869.94;8696617;33;20591;-75
2020/12/14 22:12:45;;;;;;;6.57;4.32;;;;;;;8.02;74.44;99870.16;8695923;33;20574;-74
2020/12/14 22:18:06;;;;;;;10.15;5.18;;;;;;;8.00;74.14;99867.56;8695778;33;20144;-74
2020/12/14 22:23:26;;;;;;;10.68;5.38;;;;;;;8.08;74.30;99860.91;8695328;33;20712;-75
2020/12/14 22:28:50;;;;;;;9.95;5.13;;;;;;;8.04;74.13;99859.44;8695592;33;20641;-74
2020/12/14 22:34:10;;;;;;;11.27;5.53;;;;;;;8.06;73.97;99861.00;8695075;33;20141;-75
2020/12/14 22:39:32;;;;;;;8.32;5.35;;;;;;;8.09;73.72;99860.84;8694182;33;20152;-74
2020/12/14 22:44:54;;;;;;;11.55;5.75;;;;;;;8.09;73.79;99846.66;8694755;33;20133;-75
2020/12/14 22:50:14;;;;;;;12.98;6.40;;;;;;;8.15;73.63;99846.28;8694158;33;20148;-76
2020/12/14 22:55:35;;;;;;;13.00;8.38;;;;;;;8.15;73.79;99838.28;8693809;33;20616;-75
2020/12/14 23:00:57;;;;;;;8.25;5.65;;;;;;;8.16;73.47;99848.81;8694105;33;20645;-76
2020/12/14 23:06:17;;;;;;;7.85;5.13;;;;;;;8.24;73.53;99843.00;8694380;33;20141;-76
2020/12/14 23:11:38;;;;;;;8.00;5.15;;;;;;;8.19;72.86;99853.09;8673266;33;20144;-76
2020/12/14 23:16:59;;;;;;;9.35;5.80;;;;;;;8.21;73.04;99851.19;8694043;33;20149;-76
2020/12/14 23:22:20;;;;;;;8.98;6.28;;;;;;;8.15;73.25;99846.28;8693483;33;20246;-76
2020/12/14 23:27:40;;;;;;;10.25;6.57;;;;;;;8.11;73.47;99839.44;8693357;33;20247;-75
2020/12/14 23:33:03;;;;;;;10.98;7.18;;;;;;;8.08;73.63;99827.19;8693243;33;20140;-76
2020/12/14 23:38:25;;;;;;;11.02;7.53;;;;;;;8.08;73.67;99824.53;8693443;33;20153;-76
2020/12/14 23:43:45;;;;;;;9.20;5.57;;;;;;;8.01;73.45;99840.03;8672371;33;20239;-76
2020/12/14 23:49:07;;;;;;;9.52;6.25;;;;;;;8.16;73.31;99824.03;8693189;33;20180;-75
2020/12/14 23:54:28;;;;;;;8.02;5.53;;;;;;;8.14;73.22;99788.66;8692885;33;20153;-76
2020/12/14 23:59:48;;;;;;;11.35;6.45;;;;;;;8.18;73.24;99787.53;8692507;33;20145;-75
